Time;durP1;ratioP1;P1;durP2;ratioP2;P2;SDS_P1;SDS_P2;PMS_P1;PMS_P2;Temp;Humidity;BMP_temperature;BMP_pressure;BME280_temperature;BME280_humidity;BME280_pressure;Samples;Min_cycle;Max_cycle;Signal;HPM_P1;HPM_P2
2023/10/14 00:02:30;;;;;;;3.35;2.58;;;;;;;13.80;100.00;101018.13;4970394;28;20090;-73
2023/10/14 00:04:52;;;;;;;3.80;3.22;;;;;;;13.69;100.00;101011.09;4972202;28;20047;-74
2023/10/14 00:07:18;;;;;;;4.63;4.22;;;;;;;13.33;100.00;100983.09;4973551;28;20077;-73
2023/10/14 00:09:44;;;;;;;4.90;3.92;;;;;;;13.58;100.00;100996.19;4974069;28;20113;-74
2023/10/14 00:12:14;;;;;;;3.28;2.97;;;;;;;13.59;100.00;101003.25;4973323;28;20126;-73
2023/10/14 00:14:42;;;;;;;4.00;3.08;;;;;;;13.55;100.00;100991.81;4973685;28;20023;-74
2023/10/14 00:17:12;;;;;;;6.20;4.97;;;;;;;12.93;100.00;100913.75;4968231;28;20023;-73
2023/10/14 00:19:37;;;;;;;1.77;1.35;;;;;;;13.36;100.00;100998.03;4954248;28;20039;-74
2023/10/14 00:22:05;;;;;;;10.13;4.60;;;;;;;12.74;100.00;100878.66;4968450;28;20411;-75
2023/10/14 00:24:31;;;;;;;10.60;2.20;;;;;;;12.72;100.00;100877.78;4954512;28;20124;-73
2023/10/14 00:27:50;;;;;;;5.65;2.55;;;;;;;13.25;100.00;100983.09;4954385;28;20476;-74
2023/10/14 00:30:19;;;;;;;4.28;3.22;;;;;;;12.74;100.00;100861.09;4962057;28;20070;-73
2023/10/14 00:32:45;;;;;;;7.53;3.30;;;;;;;13.41;100.00;100990.97;4973905;28;20118;-73
2023/10/14 00:38:34;;;;;;;4.43;2.88;;;;;;;13.35;100.00;100975.19;4974228;28;20046;-74
2023/10/14 00:47:52;;;;;;;7.80;6.43;;;;;;;12.84;100.00;100981.34;4978263;28;20070;-75
2023/10/14 00:50:33;;;;;;;2.60;2.40;;;;;;;13.01;100.00;100989.22;4978189;28;20030;-73
2023/10/14 00:53:05;;;;;;;6.03;5.45;;;;;;;13.16;100.00;100985.72;4976585;28;20391;-74
2023/10/14 01:04:36;;;;;;;3.00;1.80;;;;;;;12.68;100.00;100956.75;4973010;28;20043;-73
2023/10/14 01:14:04;;;;;;;1.58;1.20;;;;;;;13.21;100.00;100991.00;4977478;28;20491;-73
2023/10/14 01:19:51;;;;;;;4.25;3.10;;;;;;;13.03;100.00;100965.53;4973841;28;20062;-72
2023/10/14 01:25:47;;;;;;;4.47;2.97;;;;;;;12.83;100.00;100979.59;4957505;28;20050;-73
2023/10/14 01:28:21;;;;;;;3.22;1.63;;;;;;;12.40;100.00;100884.81;4955771;28;20082;-74
2023/10/14 01:31:11;;;;;;;2.95;2.35;;;;;;;13.19;100.00;100983.06;4957283;28;20175;-74
2023/10/14 01:33:37;;;;;;;3.10;2.05;;;;;;;13.08;100.00;100977.81;4956960;28;20047;-73
2023/10/14 01:36:04;;;;;;;1.90;1.70;;;;;;;12.26;100.00;100868.16;4957176;28;20062;-74
2023/10/14 01:38:31;;;;;;;9.75;6.40;;;;;;;12.60;100.00;100965.56;4957694;28;20027;-74
2023/10/14 01:40:57;;;;;;;3.08;2.35;;;;;;;12.08;100.00;100889.16;4957136;28;20047;-75
2023/10/14 01:43:30;;;;;;;4.72;4.07;;;;;;;11.91;100.00;100863.72;4956781;28;20487;-74
2023/10/14 01:48:21;;;;;;;4.93;3.17;;;;;;;12.76;100.00;100956.78;4960804;28;20145;-74
2023/10/14 01:50:54;;;;;;;3.28;2.97;;;;;;;12.35;100.00;100917.28;4974736;28;20022;-74
2023/10/14 01:56:43;;;;;;;2.47;2.17;;;;;;;12.53;100.00;100896.22;4976051;28;20045;-73
2023/10/14 01:59:09;;;;;;;7.72;4.55;;;;;;;12.73;100.00;100934.81;4976036;28;20022;-73
2023/10/14 02:01:41;;;;;;;4.68;4.32;;;;;;;12.83;100.00;100950.63;4975805;28;20035;-73
2023/10/14 02:07:30;;;;;;;6.05;4.05;;;;;;;12.54;100.00;100929.56;4975759;28;20045;-73
2023/10/14 02:09:55;;;;;;;1.92;1.42;;;;;;;12.08;100.00;100849.72;4975635;28;20043;-73
2023/10/14 02:12:23;;;;;;;7.05;2.72;;;;;;;12.73;100.00;100953.25;4975655;28;20027;-73
2023/10/14 02:14:57;;;;;;;4.35;2.38;;;;;;;12.51;100.00;100916.41;4974140;28;20078;-74
2023/10/14 02:21:22;;;;;;;4.25;3.65;;;;;;;12.81;100.00;100952.38;4976166;28;20387;-74
2023/10/14 02:23:47;;;;;;;4.45;1.90;;;;;;;11.52;100.00;100741.84;4975612;28;20081;-74
2023/10/14 02:26:24;;;;;;;5.78;3.53;;;;;;;12.74;100.00;100952.41;4975687;28;20094;-74
2023/10/14 02:28:52;;;;;;;4.70;4.13;;;;;;;12.65;100.00;100942.75;4973542;28;20063;-75
2023/10/14 02:34:39;;;;;;;3.47;3.17;;;;;;;12.68;100.00;100940.97;4975799;28;20089;-74
2023/10/14 02:40:26;;;;;;;5.72;5.10;;;;;;;12.34;100.00;100944.44;4975687;28;20124;-75
2023/10/14 02:53:01;;;;;;;3.97;3.58;;;;;;;12.25;100.00;100888.31;4975899;28;20038;-73
2023/10/14 02:58:48;;;;;;;6.57;5.30;;;;;;;12.53;100.00;100926.94;4975156;28;20054;-75
2023/10/14 03:07:56;;;;;;;5.63;4.13;;;;;;;11.97;100.00;100933.88;4972664;28;20161;-74
2023/10/14 03:12:50;;;;;;;4.97;3.58;;;;;;;11.83;100.00;100916.25;4955163;28;20082;-74
2023/10/14 03:15:21;;;;;;;7.53;4.95;;;;;;;11.22;100.00;100817.94;4963315;28;20397;-74
2023/10/14 03:21:30;;;;;;;7.10;4.25;;;;;;;11.98;100.00;100930.38;4974664;28;20093;-74
2023/10/14 03:23:57;;;;;;;5.60;4.88;;;;;;;11.93;100.00;100940.88;4974270;28;20118;-73
2023/10/14 03:26:31;;;;;;;7.43;5.25;;;;;;;11.69;100.00;100920.59;4974721;28;20475;-73
2023/10/14 03:28:57;;;;;;;5.20;3.80;;;;;;;11.82;100.00;100938.19;4974431;28;20066;-73
2023/10/14 03:31:24;;;;;;;4.97;4.30;;;;;;;11.49;100.00;100832.91;4974505;28;20101;-74
2023/10/14 03:37:25;;;;;;;8.93;4.20;;;;;;;11.60;100.00;100818.06;4974351;28;20069;-74
2023/10/14 03:40:35;;;;;;;4.80;2.58;;;;;;;11.67;100.00;100818.97;4974151;28;20043;-74
2023/10/14 03:46:04;;;;;;;6.03;5.43;;;;;;;12.34;100.00;100932.19;4974448;28;20064;-75
2023/10/14 03:48:36;;;;;;;4.05;3.30;;;;;;;11.53;100.00;100806.66;4973666;28;20038;-74
2023/10/14 03:51:03;;;;;;;0.85;0.82;;;;;;;11.81;100.00;100925.03;4973909;28;20035;-74
2023/10/14 03:56:50;;;;;;;27.98;5.78;;;;;;;11.70;100.00;100927.59;4974228;28;20049;-74
2023/10/14 03:59:33;;;;;;;7.38;5.38;;;;;;;12.03;100.00;100913.72;4974451;28;20018;-73
2023/10/14 04:02:05;;;;;;;5.65;4.85;;;;;;;12.26;100.00;100928.66;4974251;28;20043;-74
2023/10/14 04:04:31;;;;;;;12.55;6.15;;;;;;;12.19;100.00;100926.91;4973799;28;20042;-74
2023/10/14 04:22:38;;;;;;;3.28;2.00;;;;;;;11.08;100.00;100857.28;4980028;28;20057;-73
2023/10/14 04:34:15;;;;;;;7.18;6.40;;;;;;;11.51;100.00;100931.03;4981510;28;20050;-75
2023/10/14 04:36:54;;;;;;;10.40;6.60;;;;;;;11.37;100.00;100923.09;4968820;28;20126;-75
2023/10/14 04:39:26;;;;;;;0.55;0.55;;;;;;;11.75;100.00;100943.41;5003557;28;20078;-74
2023/10/14 04:48:35;;;;;;;18.38;6.63;;;;;;;10.91;100.00;100820.41;4980125;28;20042;-74
2023/10/14 04:51:15;;;;;;;5.80;5.20;;;;;;;11.65;100.00;100941.63;4979516;28;20027;-74
2023/10/14 04:53:43;;;;;;;6.05;5.47;;;;;;;11.61;100.00;100933.72;4972795;28;20153;-74
2023/10/14 04:56:33;;;;;;;3.25;3.00;;;;;;;11.51;100.00;100937.16;4971908;28;20126;-74
2023/10/14 05:09:09;;;;;;;0.95;0.95;;;;;;;10.95;100.00;100859.81;4979751;28;20049;-74
2023/10/14 05:14:58;;;;;;;8.48;7.75;;;;;;;10.92;100.00;100851.06;4975140;28;20422;-74
2023/10/14 05:17:27;;;;;;;11.43;3.67;;;;;;;10.83;100.00;100832.63;4975845;28;20034;-74
2023/10/14 05:20:00;;;;;;;11.15;5.15;;;;;;;11.30;100.00;100910.78;4975478;28;20038;-73
2023/10/14 05:22:37;;;;;;;3.40;3.07;;;;;;;11.48;100.00;100928.41;4979242;28;20058;-73
2023/10/14 05:25:08;;;;;;;14.15;10.50;;;;;;;11.74;100.00;100974.06;4977508;28;20102;-74
2023/10/14 05:27:46;;;;;;;4.18;3.75;;;;;;;11.44;100.00;100895.09;4976442;28;20062;-75
2023/10/14 05:33:33;;;;;;;3.85;3.22;;;;;;;11.39;100.00;100887.19;4976287;28;20129;-74
2023/10/14 05:36:01;;;;;;;11.45;5.93;;;;;;;11.88;100.00;100971.53;4974230;28;20107;-74
2023/10/14 05:38:27;;;;;;;8.48;6.45;;;;;;;11.99;100.00;100974.22;4976217;28;20096;-74
2023/10/14 05:40:55;;;;;;;7.93;4.82;;;;;;;11.82;100.00;100919.78;4975732;28;20125;-74
2023/10/14 05:43:25;;;;;;;6.70;5.05;;;;;;;12.22;100.00;100958.47;4959079;28;20078;-75
2023/10/14 05:45:54;;;;;;;8.27;6.28;;;;;;;11.68;100.00;100831.22;4956544;28;20119;-74
2023/10/14 05:48:26;;;;;;;8.98;4.47;;;;;;;12.49;100.00;100943.59;4956392;28;20130;-74
2023/10/14 05:54:13;;;;;;;10.52;9.68;;;;;;;12.52;100.00;100949.75;4956527;28;20042;-73
2023/10/14 06:00:02;;;;;;;12.73;4.22;;;;;;;12.73;100.00;100961.16;4955539;28;20102;-73
2023/10/14 06:02:28;;;;;;;7.25;5.45;;;;;;;12.07;100.00;100830.44;4956539;29;20027;-74
2023/10/14 06:04:55;;;;;;;3.35;2.85;;;;;;;12.45;100.00;100848.88;4956519;28;20490;-74
2023/10/14 06:07:20;;;;;;;4.50;4.13;;;;;;;13.09;100.00;100933.91;4970690;28;20055;-75
2023/10/14 06:13:09;;;;;;;0.35;0.35;;;;;;;12.93;100.00;100890.91;4956454;28;20065;-74
2023/10/14 06:18:56;;;;;;;4.82;4.18;;;;;;;13.38;100.00;100901.38;4956691;28;20046;-74
2023/10/14 06:21:27;;;;;;;6.07;3.28;;;;;;;12.82;100.00;100808.41;4955601;28;20031;-75
2023/10/14 06:23:55;;;;;;;15.15;3.70;;;;;;;12.96;100.00;100801.34;4956505;28;20407;-75
2023/10/14 06:26:21;;;;;;;7.60;6.00;;;;;;;13.74;100.00;100908.22;4955885;29;20050;-74
2023/10/14 06:28:49;;;;;;;24.38;6.57;;;;;;;13.75;100.00;100917.91;4955686;28;20474;-74
2023/10/14 06:31:18;;;;;;;4.97;4.50;;;;;;;13.50;100.00;100872.31;4970282;28;20392;-74
2023/10/14 06:33:44;;;;;;;5.68;2.85;;;;;;;13.71;100.00;100897.69;4955680;28;20126;-74
2023/10/14 06:39:38;;;;;;;5.65;3.78;;;;;;;13.96;100.00;100879.97;4955660;28;20045;-75
2023/10/14 06:42:04;;;;;;;4.97;4.40;;;;;;;13.56;100.00;100811.66;4955903;28;20043;-74
2023/10/14 06:44:32;;;;;;;10.98;6.57;;;;;;;13.39;100.00;100768.66;4955965;28;20019;-74
2023/10/14 06:47:30;;;;;;;4.93;3.33;;;;;;;14.30;100.00;100895.56;4956158;28;20087;-74
2023/10/14 06:49:55;;;;;;;3.72;3.20;;;;;;;13.67;100.00;100783.47;4955170;28;20050;-74
2023/10/14 06:52:21;;;;;;;4.55;3.75;;;;;;;13.78;100.00;100786.00;4955217;28;20043;-75
2023/10/14 06:54:47;;;;;;;4.35;2.92;;;;;;;13.86;100.00;100789.47;4953847;28;20106;-75
2023/10/14 07:00:37;;;;;;;3.53;2.97;;;;;;;14.72;100.00;100881.16;4963509;28;20486;-74
2023/10/14 07:03:16;;;;;;;2.97;2.35;;;;;;;14.92;100.00;100883.59;4964460;28;20125;-74
2023/10/14 07:06:29;;;;;;;5.72;5.22;;;;;;;15.05;100.00;100883.47;4953926;28;20456;-73
2023/10/14 07:12:18;;;;;;;2.75;2.22;;;;;;;14.81;100.00;100792.13;4974662;28;20097;-74
2023/10/14 07:14:46;;;;;;;6.45;3.95;;;;;;;14.91;100.00;100788.47;4972686;28;20029;-74
2023/10/14 07:17:17;;;;;;;5.13;4.20;;;;;;;15.55;100.00;100877.59;4988871;28;20174;-75
2023/10/14 07:19:43;;;;;;;5.15;4.68;;;;;;;15.69;100.00;100871.25;4972545;28;20047;-75
2023/10/14 07:22:09;;;;;;;6.40;5.82;;;;;;;15.23;100.00;100772.22;4973296;28;20124;-75
2023/10/14 07:24:35;;;;;;;3.05;2.78;;;;;;;15.89;100.00;100869.19;4974250;28;20031;-75
2023/10/14 07:27:03;;;;;;;8.55;5.20;;;;;;;15.49;100.00;100773.63;4972672;28;20391;-75
2023/10/14 07:29:28;;;;;;;3.97;3.55;;;;;;;16.10;100.00;100864.50;4988018;28;20050;-75
2023/10/14 07:31:54;;;;;;;10.95;5.65;;;;;;;15.68;100.00;100780.41;4970326;28;20035;-73
2023/10/14 07:34:19;;;;;;;11.18;4.50;;;;;;;16.28;100.00;100850.97;4966482;28;20038;-73
2023/10/14 07:36:45;;;;;;;3.63;3.30;;;;;;;16.44;100.00;100875.44;4973482;28;20125;-74
2023/10/14 07:39:29;;;;;;;7.93;4.50;;;;;;;16.05;100.00;100785.16;4973350;28;20133;-76
2023/10/14 07:41:55;;;;;;;4.85;4.45;;;;;;;16.59;100.00;100850.44;4973092;28;20034;-75
2023/10/14 07:47:42;;;;;;;2.97;2.70;;;;;;;17.06;100.00;100856.66;4974097;28;20074;-76
2023/10/14 07:50:31;;;;;;;4.72;3.53;;;;;;;17.41;100.00;100863.03;4974223;28;20030;-76
2023/10/14 07:56:19;;;;;;;9.10;5.63;;;;;;;17.03;100.00;100771.88;4974236;28;20101;-75
2023/10/14 07:58:44;;;;;;;10.15;5.50;;;;;;;17.07;100.00;100742.63;4973709;28;20456;-74
2023/10/14 08:01:16;;;;;;;6.05;5.55;;;;;;;18.08;100.00;100858.03;4973171;28;20038;-75
2023/10/14 08:03:41;;;;;;;3.13;2.83;;;;;;;18.38;100.00;100861.72;4973020;28;20031;-75
2023/10/14 08:06:10;;;;;;;8.02;3.97;;;;;;;18.07;100.00;100760.66;4973166;28;20408;-77
2023/10/14 08:08:42;;;;;;;8.82;3.75;;;;;;;17.70;100.00;100730.56;4973342;28;20031;-76
2023/10/14 08:11:08;;;;;;;4.68;3.33;;;;;;;18.19;100.00;100821.47;4973186;28;20379;-76
2023/10/14 08:16:57;;;;;;;3.45;3.15;;;;;;;18.65;100.00;100827.34;4973907;28;20042;-75
2023/10/14 08:19:23;;;;;;;2.25;2.08;;;;;;;18.42;100.00;100735.81;4973100;28;20383;-75
2023/10/14 08:21:50;;;;;;;4.05;3.70;;;;;;;18.50;100.00;100762.22;4973108;28;20042;-75
2023/10/14 08:24:18;;;;;;;3.47;3.03;;;;;;;19.16;100.00;100827.72;4973171;28;20035;-76
2023/10/14 08:30:13;;;;;;;3.17;2.78;;;;;;;19.51;100.00;100793.00;4973364;28;20041;-75
2023/10/14 08:36:01;;;;;;;2.95;2.75;;;;;;;19.79;100.00;100793.91;4972747;28;20532;-75
2023/10/14 08:38:29;;;;;;;5.28;2.20;;;;;;;19.27;100.00;100730.75;4973052;28;20027;-76
2023/10/14 08:40:55;;;;;;;3.30;3.05;;;;;;;19.64;100.00;100785.50;4971464;28;20031;-76
2023/10/14 08:43:23;;;;;;;3.28;3.05;;;;;;;19.88;100.00;100773.22;4972736;28;20467;-76
2023/10/14 08:49:12;;;;;;;4.43;3.92;;;;;;;19.84;100.00;100697.03;4972880;28;20042;-75
2023/10/14 08:51:39;;;;;;;3.17;2.70;;;;;;;20.68;100.00;100794.53;4972447;28;20054;-75
2023/10/14 08:54:10;;;;;;;5.40;4.65;;;;;;;20.91;100.00;100802.56;4972434;28;20035;-76
2023/10/14 08:56:36;;;;;;;2.97;2.08;;;;;;;20.40;100.00;100759.00;4971884;28;20031;-76
2023/10/14 08:59:03;;;;;;;2.78;2.58;;;;;;;20.84;100.00;100772.56;4973039;28;20027;-76
2023/10/14 09:01:31;;;;;;;3.80;1.70;;;;;;;20.41;96.70;100710.06;4970789;28;20031;-76
2023/10/14 09:03:59;;;;;;;4.15;3.22;;;;;;;20.34;95.14;100697.03;5003821;28;20035;-76
2023/10/14 09:07:02;;;;;;;4.60;4.18;;;;;;;20.94;96.33;100797.09;4974344;28;20034;-75
2023/10/14 09:13:03;;;;;;;1.33;1.10;;;;;;;21.17;91.09;100766.88;4976205;28;20418;-77
2023/10/14 09:15:34;;;;;;;2.25;2.05;;;;;;;21.55;84.37;100787.72;4976460;28;20371;-77
2023/10/14 09:18:00;;;;;;;18.73;2.78;;;;;;;21.54;86.13;100775.28;4976175;28;20158;-75
2023/10/14 09:23:48;;;;;;;1.88;1.25;;;;;;;21.50;86.23;100767.41;4975390;28;20066;-76
2023/10/14 09:26:17;;;;;;;0.60;0.50;;;;;;;21.63;81.75;100753.53;4976719;28;20448;-77
2023/10/14 09:28:45;;;;;;;1.63;1.52;;;;;;;21.80;75.84;100728.84;4957581;28;20079;-75
2023/10/14 09:31:11;;;;;;;0.93;0.77;;;;;;;21.42;71.32;100665.41;4969476;28;20043;-76
2023/10/14 09:33:38;;;;;;;1.50;1.40;;;;;;;22.08;69.68;100748.13;4975706;28;20035;-76
2023/10/14 09:36:11;;;;;;;1.30;1.25;;;;;;;22.11;69.09;100731.94;4989416;28;20034;-75
2023/10/14 09:38:38;;;;;;;1.80;1.05;;;;;;;21.81;67.71;100664.63;4975848;28;20026;-75
2023/10/14 09:41:05;;;;;;;0.98;0.95;;;;;;;22.32;67.32;100730.19;4990735;28;20089;-77
2023/10/14 09:43:33;;;;;;;3.83;2.13;;;;;;;22.21;66.00;100712.88;4975340;28;20042;-76
2023/10/14 09:46:00;;;;;;;2.47;2.28;;;;;;;21.97;63.56;100674.69;4975719;28;20038;-76
2023/10/14 09:51:48;;;;;;;8.80;2.28;;;;;;;21.93;61.98;100623.16;4975780;28;20050;-76
2023/10/14 09:57:38;;;;;;;0.98;0.95;;;;;;;22.23;63.20;100658.41;4975751;28;20332;-76
2023/10/14 10:00:07;;;;;;;0.60;0.60;;;;;;;22.62;62.15;100700.34;4975589;28;20039;-76
2023/10/14 10:02:33;;;;;;;2.00;1.13;;;;;;;22.17;60.87;100598.94;4975612;28;20475;-76
2023/10/14 10:05:02;;;;;;;1.30;0.75;;;;;;;22.34;59.92;100616.00;4975571;28;20073;-76
2023/10/14 10:10:51;;;;;;;0.93;0.50;;;;;;;22.88;58.53;100674.19;4975340;28;20438;-76
2023/10/14 10:16:41;;;;;;;2.38;1.83;;;;;;;22.61;57.53;100607.63;4974168;28;20062;-76
2023/10/14 10:19:11;;;;;;;1.23;0.35;;;;;;;22.62;57.90;100579.09;4974981;28;20035;-75
2023/10/14 10:21:43;;;;;;;1.20;1.10;;;;;;;22.90;57.54;100592.03;4974414;28;20041;-76
2023/10/14 10:24:34;;;;;;;1.98;1.80;;;;;;;23.11;57.43;100638.31;4974743;28;20047;-78
2023/10/14 10:27:03;;;;;;;2.40;2.15;;;;;;;23.36;58.71;100654.91;4974964;28;20039;-76
2023/10/14 10:32:52;;;;;;;0.43;0.43;;;;;;;23.57;57.23;100636.03;4976024;28;20049;-80
2023/10/14 10:35:21;;;;;;;2.67;1.95;;;;;;;23.47;57.73;100607.97;4973919;28;20113;-78
2023/10/14 10:37:55;;;;;;;0.63;0.55;;;;;;;23.67;56.10;100618.56;4973730;28;20069;-77
2023/10/14 10:40:26;;;;;;;0.88;0.60;;;;;;;23.30;57.58;100582.06;4974914;28;20501;-78
2023/10/14 10:43:05;;;;;;;3.97;1.55;;;;;;;23.03;56.36;100536.97;4973551;28;20093;-78
2023/10/14 10:45:35;;;;;;;0.55;0.43;;;;;;;23.24;55.54;100536.84;4974400;28;20497;-78
2023/10/14 10:48:04;;;;;;;0.52;0.50;;;;;;;23.68;55.79;100572.06;4974496;28;20068;-76
2023/10/14 10:50:34;;;;;;;4.80;3.80;;;;;;;23.59;56.15;100527.84;4975429;28;20030;-76
2023/10/14 10:53:09;;;;;;;2.08;1.20;;;;;;;24.18;54.57;100600.69;4974899;28;20034;-78
2023/10/14 10:55:38;;;;;;;1.75;1.50;;;;;;;24.14;55.59;100595.56;4974426;28;20043;-77
2023/10/14 10:58:07;;;;;;;1.17;0.73;;;;;;;24.28;54.78;100595.72;4972266;28;20047;-77
2023/10/14 11:00:33;;;;;;;0.75;0.75;;;;;;;24.27;54.97;100579.72;4972574;28;20043;-75
2023/10/14 11:09:41;;;;;;;2.25;2.05;;;;;;;24.24;52.93;100578.06;4974655;28;20113;-80
2023/10/14 11:12:12;;;;;;;0.85;0.63;;;;;;;23.73;53.18;100494.09;4973808;28;20078;-78
2023/10/14 11:14:38;;;;;;;5.85;4.25;;;;;;;24.07;52.73;100545.91;4972674;28;20129;-80
2023/10/14 11:17:06;;;;;;;2.05;1.85;;;;;;;24.33;53.26;100557.94;4975026;28;20030;-79
2023/10/14 11:22:57;;;;;;;1.95;1.83;;;;;;;23.63;53.46;100448.19;4975477;28;20097;-79
2023/10/14 11:25:22;;;;;;;1.55;1.55;;;;;;;24.21;52.89;100538.00;4977926;28;20043;-81
2023/10/14 11:27:49;;;;;;;1.02;0.95;;;;;;;24.31;53.24;100541.06;4980085;28;20042;-80
2023/10/14 11:33:36;;;;;;;0.40;0.40;;;;;;;24.19;54.07;100492.50;4974531;28;20041;-80
2023/10/14 11:39:24;;;;;;;1.02;0.93;;;;;;;24.36;53.51;100502.28;4973688;28;20037;-76
2023/10/14 11:41:50;;;;;;;1.20;1.10;;;;;;;24.57;53.38;100510.13;4973910;28;20027;-78
2023/10/14 11:44:19;;;;;;;1.15;1.02;;;;;;;24.79;53.13;100526.69;4974257;28;20439;-77
2023/10/14 11:46:46;;;;;;;1.67;1.45;;;;;;;24.68;52.03;100518.44;4974066;28;20387;-87
2023/10/14 11:49:12;;;;;;;1.00;0.75;;;;;;;24.52;51.70;100526.47;4973323;28;20129;-78
2023/10/14 11:51:47;;;;;;;0.85;0.65;;;;;;;24.69;52.19;100519.28;4973440;28;20427;-79
2023/10/14 11:54:15;;;;;;;0.93;0.93;;;;;;;24.55;53.04;100512.00;4973691;28;20504;-76
2023/10/14 11:56:42;;;;;;;7.43;0.73;;;;;;;24.69;52.55;100504.03;4973356;28;20033;-77
2023/10/14 11:59:08;;;;;;;1.13;0.88;;;;;;;24.15;53.18;100428.41;4973975;28;20035;-78
2023/10/14 12:01:34;;;;;;;0.60;0.50;;;;;;;24.16;52.59;100414.03;4971929;28;20042;-79
2023/10/14 12:07:21;;;;;;;2.35;1.85;;;;;;;24.25;52.44;100401.94;4954344;28;20053;-78
2023/10/14 12:09:47;;;;;;;2.35;1.90;;;;;;;24.55;53.86;100472.63;4963971;28;20050;-78
2023/10/14 12:12:13;;;;;;;1.42;1.33;;;;;;;24.58;54.03;100480.53;4972084;28;20039;-78
2023/10/14 12:14:38;;;;;;;1.13;0.90;;;;;;;24.14;53.43;100370.34;4973769;28;20367;-79
2023/10/14 12:17:04;;;;;;;4.35;2.47;;;;;;;24.48;53.68;100473.94;4973494;28;20049;-80
2023/10/14 12:19:31;;;;;;;1.77;1.67;;;;;;;24.53;53.12;100439.66;4971869;28;20039;-79
2023/10/14 12:21:56;;;;;;;1.77;1.42;;;;;;;24.46;53.76;100426.66;4971877;28;20030;-78
2023/10/14 12:24:22;;;;;;;2.83;2.63;;;;;;;24.67;53.85;100479.09;4970811;28;20422;-77
2023/10/14 12:26:49;;;;;;;1.40;1.30;;;;;;;24.19;52.64;100382.56;4972785;28;20037;-78
2023/10/14 12:29:15;;;;;;;0.90;0.80;;;;;;;24.54;52.60;100462.00;4973459;28;20019;-78
2023/10/14 12:31:44;;;;;;;0.65;0.60;;;;;;;23.88;52.78;100361.09;4973171;28;20489;-77
2023/10/14 12:37:33;;;;;;;0.47;0.47;;;;;;;24.39;52.15;100416.25;4973052;28;20058;-78
2023/10/14 12:53:24;;;;;;;1.65;1.55;;;;;;;24.72;51.28;100417.13;4977969;28;20038;-77
2023/10/14 12:55:50;;;;;;;1.55;1.45;;;;;;;24.95;50.25;100418.44;4977114;28;20379;-77
2023/10/14 12:58:16;;;;;;;1.65;0.55;;;;;;;24.66;50.61;100385.28;4977690;28;20120;-78
2023/10/14 13:00:45;;;;;;;2.85;1.83;;;;;;;24.45;50.08;100369.47;4977028;28;20426;-77
2023/10/14 13:03:11;;;;;;;0.43;0.43;;;;;;;24.82;50.36;100421.84;4977477;28;20049;-76
2023/10/14 13:05:38;;;;;;;0.93;0.85;;;;;;;23.90;52.47;100321.69;4978164;28;20106;-79
2023/10/14 13:08:04;;;;;;;1.05;0.90;;;;;;;24.29;50.94;100369.47;5009739;28;20081;-76
2023/10/14 13:10:46;;;;;;;1.42;1.13;;;;;;;24.56;52.06;100390.31;4977121;28;20050;-77
2023/10/14 13:13:13;;;;;;;2.55;2.35;;;;;;;24.28;51.50;100370.44;4956596;28;20384;-79
2023/10/14 13:19:01;;;;;;;1.83;1.65;;;;;;;24.17;50.39;100314.75;4974334;28;20037;-78
2023/10/14 13:21:29;;;;;;;0.20;0.20;;;;;;;24.23;50.25;100317.09;4976258;28;20047;-78
2023/10/14 13:23:56;;;;;;;3.33;1.75;;;;;;;24.71;50.70;100400.16;4978165;28;20062;-78
2023/10/14 13:26:22;;;;;;;1.05;0.85;;;;;;;24.54;50.47;100355.53;4977043;28;20121;-80
2023/10/14 13:28:52;;;;;;;2.08;1.08;;;;;;;24.31;49.79;100303.22;4975119;28;20065;-78
2023/10/14 13:31:19;;;;;;;0.65;0.52;;;;;;;24.79;49.72;100370.16;4975243;28;20081;-81
2023/10/14 13:33:47;;;;;;;0.85;0.65;;;;;;;24.80;50.25;100356.66;5005320;28;20096;-80
2023/10/14 13:39:35;;;;;;;2.15;1.13;;;;;;;24.70;49.58;100363.56;4976360;28;20045;-77
2023/10/14 13:42:00;;;;;;;1.48;1.20;;;;;;;24.23;49.33;100274.19;4975673;28;20121;-78
2023/10/14 13:44:26;;;;;;;2.78;2.10;;;;;;;24.31;50.54;100291.63;4977247;28;20078;-78
2023/10/14 13:46:51;;;;;;;1.60;0.95;;;;;;;24.33;52.15;100303.13;4974098;28;20105;-79
2023/10/14 13:52:39;;;;;;;1.08;0.75;;;;;;;24.47;49.79;100316.63;4975205;28;20049;-79
2023/10/14 13:55:06;;;;;;;2.03;1.15;;;;;;;23.92;51.77;100266.19;4975828;28;20045;-85
2023/10/14 13:57:33;;;;;;;5.45;1.50;;;;;;;24.51;50.99;100353.03;4975718;28;20043;-76
2023/10/14 13:59:59;;;;;;;1.45;1.08;;;;;;;24.21;52.27;100316.31;4975670;28;20142;-75
2023/10/14 14:05:48;;;;;;;1.33;1.23;;;;;;;24.36;52.86;100340.50;4976117;28;20114;-75
2023/10/14 14:08:30;;;;;;;2.92;1.05;;;;;;;23.97;52.61;100285.53;4976232;28;20035;-78
2023/10/14 14:11:03;;;;;;;2.40;0.90;;;;;;;24.05;52.26;100287.81;4975646;28;20039;-78
2023/10/14 14:13:29;;;;;;;;;;;;;;;24.20;53.48;100338.69;4976384;28;20059;-79
2023/10/14 14:15:55;;;;;;;1.23;1.13;;;;;;;23.67;53.79;100243.47;4975229;28;19941;-77
2023/10/14 14:21:44;;;;;;;1.42;1.27;;;;;;;23.79;53.32;100269.59;4975406;28;20041;-79
2023/10/14 14:24:10;;;;;;;1.27;1.17;;;;;;;24.07;52.50;100323.41;5006435;28;20046;-78
2023/10/14 14:26:35;;;;;;;2.30;2.08;;;;;;;23.97;52.18;100321.25;4975739;28;20031;-77
2023/10/14 14:29:02;;;;;;;0.38;0.30;;;;;;;23.88;51.65;100303.03;4975884;28;20374;-76
2023/10/14 14:34:49;;;;;;;3.35;1.48;;;;;;;23.65;53.28;100280.19;4975230;28;20149;-76
2023/10/14 14:40:40;;;;;;;1.58;1.08;;;;;;;23.55;51.96;100273.59;4974519;28;20546;-76
2023/10/14 14:43:06;;;;;;;3.13;1.85;;;;;;;23.61;51.98;100281.31;4974964;28;20047;-76
2023/10/14 14:45:35;;;;;;;12.43;1.23;;;;;;;23.81;52.78;100315.03;4972456;28;20061;-76
2023/10/14 14:48:01;;;;;;;1.60;1.45;;;;;;;23.68;53.90;100319.34;4973342;28;20038;-77
2023/10/14 14:50:30;;;;;;;1.40;0.68;;;;;;;23.58;54.51;100306.44;4973740;28;20050;-75
2023/10/14 14:52:58;;;;;;;0.52;0.52;;;;;;;23.48;54.53;100294.50;4973377;28;20039;-75
2023/10/14 15:02:07;;;;;;;3.03;2.72;;;;;;;23.35;54.29;100301.50;4972416;28;20387;-75
2023/10/14 15:04:33;;;;;;;2.42;2.22;;;;;;;23.25;55.68;100300.25;4970271;28;20035;-75
2023/10/14 15:07:00;;;;;;;1.20;1.10;;;;;;;22.74;56.12;100228.03;4956537;28;20065;-75
2023/10/14 15:09:25;;;;;;;2.13;1.95;;;;;;;22.95;56.95;100295.59;4955113;28;20047;-75
2023/10/14 15:15:52;;;;;;;2.05;1.95;;;;;;;22.79;60.03;100300.03;4974769;28;20057;-76
2023/10/14 15:18:19;;;;;;;5.28;2.13;;;;;;;22.66;61.84;100289.09;4974003;28;20517;-75
2023/10/14 15:20:45;;;;;;;1.70;1.55;;;;;;;22.49;62.21;100279.28;4974258;28;20030;-76
2023/10/14 15:26:32;;;;;;;0.93;0.88;;;;;;;22.24;66.46;100259.16;4974774;28;20125;-76
2023/10/14 15:28:59;;;;;;;6.68;2.42;;;;;;;21.93;66.15;100223.25;4974132;28;20086;-76
2023/10/14 15:31:26;;;;;;;2.40;2.22;;;;;;;22.30;67.65;100298.06;4972475;28;20043;-75
2023/10/14 15:33:55;;;;;;;0.77;0.77;;;;;;;21.89;68.10;100240.38;4973849;28;20035;-75
2023/10/14 15:40:21;;;;;;;1.60;1.23;;;;;;;22.02;71.92;100296.75;4959343;28;20405;-76
2023/10/14 15:46:25;;;;;;;18.13;2.65;;;;;;;21.81;77.07;100287.97;4973746;28;20501;-75
2023/10/14 15:49:20;;;;;;;1.15;1.05;;;;;;;21.73;80.38;100291.94;4972586;28;20037;-75
2023/10/14 15:56:03;;;;;;;2.72;2.53;;;;;;;21.48;87.05;100285.97;4973882;28;20054;-76
2023/10/14 16:01:49;;;;;;;3.50;3.15;;;;;;;20.69;91.83;100199.78;4974242;28;20165;-75
2023/10/14 16:07:38;;;;;;;4.53;3.20;;;;;;;20.30;93.67;100165.06;4973635;28;20054;-75
2023/10/14 16:13:28;;;;;;;2.47;1.95;;;;;;;20.30;96.50;100195.28;4973748;28;20086;-76
2023/10/14 16:15:55;;;;;;;5.03;4.07;;;;;;;20.33;98.57;100218.25;4972791;28;20097;-77
2023/10/14 16:18:21;;;;;;;7.80;3.47;;;;;;;20.12;100.00;100193.41;4971604;28;20097;-76
2023/10/14 16:20:49;;;;;;;1.38;1.27;;;;;;;20.03;100.00;100192.84;4973087;28;20375;-74
2023/10/14 16:26:36;;;;;;;3.53;3.22;;;;;;;20.37;100.00;100276.69;4954777;29;20090;-77
2023/10/14 16:29:33;;;;;;;6.60;5.07;;;;;;;20.37;100.00;100284.69;4954896;28;20091;-77
2023/10/14 16:31:59;;;;;;;2.90;2.60;;;;;;;19.73;100.00;100180.84;4952091;28;20047;-75
2023/10/14 16:34:27;;;;;;;8.18;4.90;;;;;;;20.25;100.00;100282.53;4951743;28;20046;-76